sensor_id;sensor_type;location;lat;lon;timestamp;pressure;altitude;pressure_sealevel;temperature;humidity
72896;BME280;61036;53.224;6.554;2023-04-25T00:02:21;100860.25;;;11.25;100.00
72896;BME280;61036;53.224;6.554;2023-04-25T00:04:47;100853.94;;;11.48;100.00
72896;BME280;61036;53.224;6.554;2023-04-25T00:07:14;100863.13;;;11.45;100.00
72896;BME280;61036;53.224;6.554;2023-04-25T00:09:41;100861.28;;;11.46;100.00
72896;BME280;61036;53.224;6.554;2023-04-25T00:12:07;100857.56;;;11.13;100.00
72896;BME280;61036;53.224;6.554;2023-04-25T00:14:33;100858.94;;;11.30;100.00
72896;BME280;61036;53.224;6.554;2023-04-25T00:16:59;100864.53;;;11.85;100.00
72896;BME280;61036;53.224;6.554;2023-04-25T00:19:25;100869.16;;;11.60;100.00
72896;BME280;61036;53.224;6.554;2023-04-25T00:21:54;100870.75;;;11.52;100.00
72896;BME280;61036;53.224;6.554;2023-04-25T00:24:20;100880.22;;;11.11;100.00
72896;BME280;61036;53.224;6.554;2023-04-25T00:26:46;100886.56;;;10.98;100.00
72896;BME280;61036;53.224;6.554;2023-04-25T00:29:11;100887.91;;;10.69;100.00
72896;BME280;61036;53.224;6.554;2023-04-25T00:31:37;100885.13;;;10.82;100.00
72896;BME280;61036;53.224;6.554;2023-04-25T00:34:02;100884.97;;;10.48;100.00
72896;BME280;61036;53.224;6.554;2023-04-25T00:36:28;100887.06;;;11.04;100.00
72896;BME280;61036;53.224;6.554;2023-04-25T00:38:54;100885.03;;;10.83;100.00
72896;BME280;61036;53.224;6.554;2023-04-25T00:41:22;100885.19;;;10.93;100.00
72896;BME280;61036;53.224;6.554;2023-04-25T00:43:49;100880.84;;;11.14;100.00
72896;BME280;61036;53.224;6.554;2023-04-25T00:46:15;100877.44;;;10.88;100.00
72896;BME280;61036;53.224;6.554;2023-04-25T00:48:41;100880.09;;;11.01;100.00
72896;BME280;61036;53.224;6.554;2023-04-25T00:51:06;100884.13;;;10.71;100.00
72896;BME280;61036;53.224;6.554;2023-04-25T00:53:32;100881.47;;;11.18;100.00
72896;BME280;61036;53.224;6.554;2023-04-25T00:55:58;100882.56;;;10.80;100.00
72896;BME280;61036;53.224;6.554;2023-04-25T00:58:24;100885.50;;;11.12;100.00
72896;BME280;61036;53.224;6.554;2023-04-25T01:00:51;100885.19;;;11.28;100.00
72896;BME280;61036;53.224;6.554;2023-04-25T01:03:19;100887.34;;;11.12;100.00
72896;BME280;61036;53.224;6.554;2023-04-25T01:05:46;100888.34;;;11.22;100.00
72896;BME280;61036;53.224;6.554;2023-04-25T01:08:12;100886.91;;;11.29;100.00
72896;BME280;61036;53.224;6.554;2023-04-25T01:10:38;100886.50;;;11.11;100.00
72896;BME280;61036;53.224;6.554;2023-04-25T01:13:03;100881.59;;;11.16;100.00
72896;BME280;61036;53.224;6.554;2023-04-25T01:15:29;100886.09;;;11.05;100.00
72896;BME280;61036;53.224;6.554;2023-04-25T01:17:55;100886.22;;;10.55;100.00
72896;BME280;61036;53.224;6.554;2023-04-25T01:20:22;100882.25;;;10.96;100.00
72896;BME280;61036;53.224;6.554;2023-04-25T01:22:49;100882.94;;;11.22;100.00
72896;BME280;61036;53.224;6.554;2023-04-25T01:25:16;100894.06;;;11.06;100.00
72896;BME280;61036;53.224;6.554;2023-04-25T01:27:43;100882.94;;;11.11;100.00
72896;BME280;61036;53.224;6.554;2023-04-25T01:30:09;100883.56;;;11.14;100.00
72896;BME280;61036;53.224;6.554;2023-04-25T01:32:35;100889.75;;;11.39;100.00
72896;BME280;61036;53.224;6.554;2023-04-25T01:35:09;100900.59;;;11.50;100.00
72896;BME280;61036;53.224;6.554;2023-04-25T01:37:42;100894.28;;;11.38;100.00
72896;BME280;61036;53.224;6.554;2023-04-25T01:40:10;100891.34;;;11.41;100.00
72896;BME280;61036;53.224;6.554;2023-04-25T01:42:39;100903.41;;;11.60;100.00
72896;BME280;61036;53.224;6.554;2023-04-25T01:45:07;100899.56;;;11.86;100.00
72896;BME280;61036;53.224;6.554;2023-04-25T01:47:33;100898.44;;;10.96;100.00
72896;BME280;61036;53.224;6.554;2023-04-25T01:50:01;100902.47;;;10.66;100.00
72896;BME280;61036;53.224;6.554;2023-04-25T01:52:28;100899.94;;;11.35;100.00
72896;BME280;61036;53.224;6.554;2023-04-25T01:54:54;100902.84;;;11.21;100.00
72896;BME280;61036;53.224;6.554;2023-04-25T01:57:20;100902.84;;;10.97;100.00
72896;BME280;61036;53.224;6.554;2023-04-25T01:59:46;100912.22;;;11.04;100.00
72896;BME280;61036;53.224;6.554;2023-04-25T02:02:37;100914.75;;;11.30;100.00
72896;BME280;61036;53.224;6.554;2023-04-25T02:05:05;100908.38;;;11.31;100.00
72896;BME280;61036;53.224;6.554;2023-04-25T02:07:33;100914.97;;;11.62;100.00
72896;BME280;61036;53.224;6.554;2023-04-25T02:09:59;100915.66;;;10.58;100.00
72896;BME280;61036;53.224;6.554;2023-04-25T02:12:27;100920.31;;;11.04;100.00
72896;BME280;61036;53.224;6.554;2023-04-25T02:15:11;100919.75;;;10.88;100.00
72896;BME280;61036;53.224;6.554;2023-04-25T02:17:43;100919.06;;;10.73;100.00
72896;BME280;61036;53.224;6.554;2023-04-25T02:20:11;100936.22;;;10.35;100.00
72896;BME280;61036;53.224;6.554;2023-04-25T02:22:38;100929.91;;;10.60;100.00
72896;BME280;61036;53.224;6.554;2023-04-25T02:25:05;100941.03;;;10.43;100.00
72896;BME280;61036;53.224;6.554;2023-04-25T02:27:31;100932.41;;;10.38;100.00
72896;BME280;61036;53.224;6.554;2023-04-25T02:29:56;100933.75;;;10.69;100.00
72896;BME280;61036;53.224;6.554;2023-04-25T02:32:22;100930.22;;;10.56;100.00
72896;BME280;61036;53.224;6.554;2023-04-25T02:34:47;100935.06;;;10.26;100.00
72896;BME280;61036;53.224;6.554;2023-04-25T02:37:13;100935.78;;;10.41;100.00
72896;BME280;61036;53.224;6.554;2023-04-25T02:39:39;100939.66;;;10.24;100.00
72896;BME280;61036;53.224;6.554;2023-04-25T02:42:04;100940.09;;;10.18;100.00
72896;BME280;61036;53.224;6.554;2023-04-25T02:44:30;100939.88;;;10.34;100.00
72896;BME280;61036;53.224;6.554;2023-04-25T02:46:55;100931.88;;;10.20;100.00
72896;BME280;61036;53.224;6.554;2023-04-25T02:49:22;100936.63;;;10.42;100.00
72896;BME280;61036;53.224;6.554;2023-04-25T02:51:48;100934.59;;;10.07;100.00
72896;BME280;61036;53.224;6.554;2023-04-25T02:54:14;100929.19;;;10.45;100.00
72896;BME280;61036;53.224;6.554;2023-04-25T02:56:43;100934.66;;;10.44;100.00
72896;BME280;61036;53.224;6.554;2023-04-25T02:59:13;100928.00;;;10.73;100.00
72896;BME280;61036;53.224;6.554;2023-04-25T03:01:38;100939.91;;;10.08;100.00
72896;BME280;61036;53.224;6.554;2023-04-25T03:04:04;100933.13;;;10.65;100.00
72896;BME280;61036;53.224;6.554;2023-04-25T03:06:30;100935.50;;;10.57;100.00
72896;BME280;61036;53.224;6.554;2023-04-25T03:08:56;100937.63;;;10.65;100.00
72896;BME280;61036;53.224;6.554;2023-04-25T03:11:22;100943.66;;;10.44;100.00
72896;BME280;61036;53.224;6.554;2023-04-25T03:13:47;100936.91;;;10.63;100.00
72896;BME280;61036;53.224;6.554;2023-04-25T03:16:13;100942.47;;;10.23;100.00
72896;BME280;61036;53.224;6.554;2023-04-25T03:18:38;100936.09;;;10.37;100.00
72896;BME280;61036;53.224;6.554;2023-04-25T03:21:04;100938.97;;;10.46;100.00
72896;BME280;61036;53.224;6.554;2023-04-25T03:23:30;100933.50;;;10.48;100.00
72896;BME280;61036;53.224;6.554;2023-04-25T03:25:56;100940.84;;;10.20;100.00
72896;BME280;61036;53.224;6.554;2023-04-25T03:28:21;100943.50;;;10.46;100.00
72896;BME280;61036;53.224;6.554;2023-04-25T03:30:47;100949.31;;;10.52;100.00
72896;BME280;61036;53.224;6.554;2023-04-25T03:33:13;100955.84;;;9.73;100.00
72896;BME280;61036;53.224;6.554;2023-04-25T03:35:38;100951.88;;;10.30;100.00
72896;BME280;61036;53.224;6.554;2023-04-25T03:38:04;100962.19;;;10.23;100.00
72896;BME280;61036;53.224;6.554;2023-04-25T03:40:34;100962.19;;;10.23;100.00
72896;BME280;61036;53.224;6.554;2023-04-25T03:43:18;100952.94;;;9.76;100.00
72896;BME280;61036;53.224;6.554;2023-04-25T03:45:50;100958.09;;;9.79;100.00
72896;BME280;61036;53.224;6.554;2023-04-25T03:48:19;100960.69;;;10.06;100.00
72896;BME280;61036;53.224;6.554;2023-04-25T03:50:50;100966.50;;;10.26;100.00
72896;BME280;61036;53.224;6.554;2023-04-25T03:53:15;100964.97;;;9.58;100.00
72896;BME280;61036;53.224;6.554;2023-04-25T03:55:59;100969.28;;;9.48;100.00
72896;BME280;61036;53.224;6.554;2023-04-25T03:58:25;100975.84;;;9.56;100.00
72896;BME280;61036;53.224;6.554;2023-04-25T04:00:50;100977.75;;;9.42;100.00
72896;BME280;61036;53.224;6.554;2023-04-25T04:03:16;100977.47;;;9.59;100.00
72896;BME280;61036;53.224;6.554;2023-04-25T04:05:42;100985.44;;;9.48;100.00
72896;BME280;61036;53.224;6.554;2023-04-25T04:08:08;100985.34;;;9.22;100.00
72896;BME280;61036;53.224;6.554;2023-04-25T04:10:34;100981.69;;;9.63;100.00
72896;BME280;61036;53.224;6.554;2023-04-25T04:13:00;100987.38;;;9.71;100.00
72896;BME280;61036;53.224;6.554;2023-04-25T04:15:26;100994.84;;;9.80;100.00
72896;BME280;61036;53.224;6.554;2023-04-25T04:17:53;100997.94;;;9.74;100.00
72896;BME280;61036;53.224;6.554;2023-04-25T04:20:20;100997.16;;;9.59;100.00
72896;BME280;61036;53.224;6.554;2023-04-25T04:22:46;101001.41;;;9.76;100.00
72896;BME280;61036;53.224;6.554;2023-04-25T04:25:13;101005.81;;;9.77;100.00
72896;BME280;61036;53.224;6.554;2023-04-25T04:27:57;101009.31;;;9.39;100.00
72896;BME280;61036;53.224;6.554;2023-04-25T04:30:34;101006.81;;;9.76;100.00
72896;BME280;61036;53.224;6.554;2023-04-25T04:33:03;101011.88;;;9.41;100.00
72896;BME280;61036;53.224;6.554;2023-04-25T04:35:29;101012.66;;;10.08;100.00
72896;BME280;61036;53.224;6.554;2023-04-25T04:37:55;101011.75;;;9.82;100.00
72896;BME280;61036;53.224;6.554;2023-04-25T04:40:23;101009.31;;;9.39;100.00
72896;BME280;61036;53.224;6.554;2023-04-25T04:43:01;101013.69;;;9.80;100.00
72896;BME280;61036;53.224;6.554;2023-04-25T04:45:35;101020.81;;;9.94;100.00
72896;BME280;61036;53.224;6.554;2023-04-25T04:48:29;101031.28;;;10.12;100.00
72896;BME280;61036;53.224;6.554;2023-04-25T04:51:15;101029.75;;;9.69;100.00
72896;BME280;61036;53.224;6.554;2023-04-25T04:53:41;101030.03;;;9.65;100.00
72896;BME280;61036;53.224;6.554;2023-04-25T04:56:18;101035.59;;;10.01;100.00
72896;BME280;61036;53.224;6.554;2023-04-25T04:59:07;101029.88;;;10.06;100.00
72896;BME280;61036;53.224;6.554;2023-04-25T05:02:01;101049.03;;;9.36;100.00
72896;BME280;61036;53.224;6.554;2023-04-25T05:04:45;101068.84;;;8.93;100.00
72896;BME280;61036;53.224;6.554;2023-04-25T05:07:30;101078.31;;;8.99;100.00
72896;BME280;61036;53.224;6.554;2023-04-25T05:10:05;101065.09;;;9.23;100.00
72896;BME280;61036;53.224;6.554;2023-04-25T05:12:41;101066.66;;;9.27;100.00
72896;BME280;61036;53.224;6.554;2023-04-25T05:15:07;101058.84;;;9.50;100.00
72896;BME280;61036;53.224;6.554;2023-04-25T05:17:50;101068.03;;;10.00;100.00
72896;BME280;61036;53.224;6.554;2023-04-25T05:20:34;101066.47;;;9.70;100.00
72896;BME280;61036;53.224;6.554;2023-04-25T05:23:20;101062.50;;;9.36;100.00
72896;BME280;61036;53.224;6.554;2023-04-25T05:25:56;101061.78;;;10.12;100.00
72896;BME280;61036;53.224;6.554;2023-04-25T05:28:40;101069.22;;;9.96;100.00
72896;BME280;61036;53.224;6.554;2023-04-25T05:31:25;101067.31;;;10.23;100.00
72896;BME280;61036;53.224;6.554;2023-04-25T05:33:57;101067.19;;;10.25;100.00
72896;BME280;61036;53.224;6.554;2023-04-25T05:36:31;101067.13;;;10.39;100.00
72896;BME280;61036;53.224;6.554;2023-04-25T05:38:57;101069.91;;;10.38;100.00
72896;BME280;61036;53.224;6.554;2023-04-25T05:41:52;101064.06;;;10.44;100.00
72896;BME280;61036;53.224;6.554;2023-04-25T05:44:50;101072.28;;;10.42;100.00
72896;BME280;61036;53.224;6.554;2023-04-25T05:47:23;101074.06;;;10.16;100.00
72896;BME280;61036;53.224;6.554;2023-04-25T05:50:11;101085.47;;;10.47;100.00
72896;BME280;61036;53.224;6.554;2023-04-25T05:52:47;101084.13;;;10.14;100.00
72896;BME280;61036;53.224;6.554;2023-04-25T05:55:35;101088.56;;;10.53;100.00
72896;BME280;61036;53.224;6.554;2023-04-25T05:58:12;101096.78;;;10.39;100.00
72896;BME280;61036;53.224;6.554;2023-04-25T06:00:38;101097.31;;;10.57;100.00
72896;BME280;61036;53.224;6.554;2023-04-25T06:03:04;101100.28;;;10.91;100.00
72896;BME280;61036;53.224;6.554;2023-04-25T06:05:29;101095.16;;;10.37;100.00
72896;BME280;61036;53.224;6.554;2023-04-25T06:07:55;101084.25;;;10.64;100.00
72896;BME280;61036;53.224;6.554;2023-04-25T06:10:21;101089.94;;;11.21;100.00
72896;BME280;61036;53.224;6.554;2023-04-25T06:12:47;101095.03;;;10.64;100.00
72896;BME280;61036;53.224;6.554;2023-04-25T06:15:15;101097.09;;;11.10;100.00
72896;BME280;61036;53.224;6.554;2023-04-25T06:17:41;101097.81;;;10.88;100.00
72896;BME280;61036;53.224;6.554;2023-04-25T06:20:07;101105.19;;;10.47;100.00
72896;BME280;61036;53.224;6.554;2023-04-25T06:22:33;101112.91;;;10.90;100.00
72896;BME280;61036;53.224;6.554;2023-04-25T06:24:59;101107.97;;;10.84;100.00
72896;BME280;61036;53.224;6.554;2023-04-25T06:27:26;101112.00;;;11.15;100.00
72896;BME280;61036;53.224;6.554;2023-04-25T06:29:52;101105.50;;;10.81;100.00
72896;BME280;61036;53.224;6.554;2023-04-25T06:32:17;101108.00;;;11.45;100.00
72896;BME280;61036;53.224;6.554;2023-04-25T06:34:43;101105.13;;;11.83;100.00
72896;BME280;61036;53.224;6.554;2023-04-25T06:37:10;101106.66;;;12.34;100.00
72896;BME280;61036;53.224;6.554;2023-04-25T06:39:35;101103.38;;;12.87;100.00
72896;BME280;61036;53.224;6.554;2023-04-25T06:42:01;101106.56;;;13.25;98.15
72896;BME280;61036;53.224;6.554;2023-04-25T06:44:52;101107.44;;;12.58;99.03
72896;BME280;61036;53.224;6.554;2023-04-25T06:47:19;101118.59;;;11.72;100.00
72896;BME280;61036;53.224;6.554;2023-04-25T06:49:45;101124.13;;;12.41;100.00
72896;BME280;61036;53.224;6.554;2023-04-25T06:52:10;101128.03;;;12.26;100.00
72896;BME280;61036;53.224;6.554;2023-04-25T06:54:37;101133.53;;;12.13;100.00
72896;BME280;61036;53.224;6.554;2023-04-25T06:57:17;101137.03;;;11.78;100.00
72896;BME280;61036;53.224;6.554;2023-04-25T06:59:43;101128.81;;;11.80;100.00
72896;BME280;61036;53.224;6.554;2023-04-25T07:02:08;101132.53;;;12.49;100.00
72896;BME280;61036;53.224;6.554;2023-04-25T07:04:34;101133.16;;;12.06;100.00
72896;BME280;61036;53.224;6.554;2023-04-25T07:07:00;101133.47;;;12.37;100.00
72896;BME280;61036;53.224;6.554;2023-04-25T07:09:37;101138.38;;;12.32;100.00
72896;BME280;61036;53.224;6.554;2023-04-25T07:12:04;101130.78;;;12.48;98.96
72896;BME280;61036;53.224;6.554;2023-04-25T07:14:29;101138.94;;;12.82;99.73
72896;BME280;61036;53.224;6.554;2023-04-25T07:16:56;101140.31;;;12.19;95.27
72896;BME280;61036;53.224;6.554;2023-04-25T07:19:23;101149.03;;;13.14;95.77
72896;BME280;61036;53.224;6.554;2023-04-25T07:21:53;101144.84;;;13.10;92.56
72896;BME280;61036;53.224;6.554;2023-04-25T07:24:19;101157.78;;;13.06;93.49
72896;BME280;61036;53.224;6.554;2023-04-25T07:26:46;101156.66;;;12.86;90.71
72896;BME280;61036;53.224;6.554;2023-04-25T07:29:21;101158.38;;;13.10;91.23
72896;BME280;61036;53.224;6.554;2023-04-25T07:31:47;101160.09;;;13.11;93.24
72896;BME280;61036;53.224;6.554;2023-04-25T07:34:13;101158.88;;;13.03;92.87
72896;BME280;61036;53.224;6.554;2023-04-25T07:36:38;101163.53;;;12.90;91.94
72896;BME280;61036;53.224;6.554;2023-04-25T07:39:05;101157.69;;;13.30;92.01
72896;BME280;61036;53.224;6.554;2023-04-25T07:41:30;101163.41;;;12.69;94.88
72896;BME280;61036;53.224;6.554;2023-04-25T07:43:56;101163.81;;;13.43;93.22
72896;BME280;61036;53.224;6.554;2023-04-25T07:46:21;101169.78;;;12.46;96.79
72896;BME280;61036;53.224;6.554;2023-04-25T07:48:47;101175.69;;;12.16;96.32
72896;BME280;61036;53.224;6.554;2023-04-25T07:51:13;101183.72;;;12.86;95.12
72896;BME280;61036;53.224;6.554;2023-04-25T07:53:39;101182.97;;;12.73;95.88
72896;BME280;61036;53.224;6.554;2023-04-25T07:56:10;101186.69;;;12.94;94.45
72896;BME280;61036;53.224;6.554;2023-04-25T07:58:38;101188.94;;;13.12;89.77
72896;BME280;61036;53.224;6.554;2023-04-25T08:01:06;101185.81;;;14.79;84.28
72896;BME280;61036;53.224;6.554;2023-04-25T08:03:47;101197.81;;;15.68;77.27
72896;BME280;61036;53.224;6.554;2023-04-25T08:06:21;101208.41;;;13.39;86.54
72896;BME280;61036;53.224;6.554;2023-04-25T08:09:04;101249.66;;;11.78;98.43
72896;BME280;61036;53.224;6.554;2023-04-25T08:11:36;101234.75;;;10.84;100.00
72896;BME280;61036;53.224;6.554;2023-04-25T08:14:03;101267.47;;;11.18;100.00
72896;BME280;61036;53.224;6.554;2023-04-25T08:16:28;101277.41;;;11.05;100.00
72896;BME280;61036;53.224;6.554;2023-04-25T08:18:55;101276.28;;;10.56;100.00
72896;BME280;61036;53.224;6.554;2023-04-25T08:21:21;101257.88;;;11.14;100.00
72896;BME280;61036;53.224;6.554;2023-04-25T08:23:46;101256.56;;;10.81;100.00
72896;BME280;61036;53.224;6.554;2023-04-25T08:26:20;101230.56;;;10.27;100.00
72896;BME280;61036;53.224;6.554;2023-04-25T08:28:46;101240.25;;;10.83;100.00
72896;BME280;61036;53.224;6.554;2023-04-25T08:31:12;101244.91;;;11.06;100.00
72896;BME280;61036;53.224;6.554;2023-04-25T08:33:47;101248.91;;;11.26;100.00
72896;BME280;61036;53.224;6.554;2023-04-25T08:36:33;101259.34;;;11.56;100.00
72896;BME280;61036;53.224;6.554;2023-04-25T08:38:59;101260.16;;;11.07;100.00
72896;BME280;61036;53.224;6.554;2023-04-25T08:41:25;101259.03;;;11.98;100.00
72896;BME280;61036;53.224;6.554;2023-04-25T08:43:53;101256.53;;;12.67;96.81
72896;BME280;61036;53.224;6.554;2023-04-25T08:46:18;101249.69;;;13.86;89.26
72896;BME280;61036;53.224;6.554;2023-04-25T08:49:03;101256.72;;;13.89;92.10
72896;BME280;61036;53.224;6.554;2023-04-25T08:51:32;101255.16;;;13.75;92.33
72896;BME280;61036;53.224;6.554;2023-04-25T08:54:09;101248.59;;;15.37;88.08
72896;BME280;61036;53.224;6.554;2023-04-25T08:56:37;101256.34;;;14.90;86.25
72896;BME280;61036;53.224;6.554;2023-04-25T08:59:04;101271.44;;;14.18;87.87
72896;BME280;61036;53.224;6.554;2023-04-25T09:01:30;101269.06;;;16.32;80.37
72896;BME280;61036;53.224;6.554;2023-04-25T09:03:57;101255.50;;;18.56;75.73
72896;BME280;61036;53.224;6.554;2023-04-25T09:06:23;101260.28;;;17.16;74.60
72896;BME280;61036;53.224;6.554;2023-04-25T09:08:50;101253.25;;;19.73;51.29
72896;BME280;61036;53.224;6.554;2023-04-25T09:11:15;101261.72;;;20.55;62.70
72896;BME280;61036;53.224;6.554;2023-04-25T09:13:42;101260.81;;;18.21;69.74
72896;BME280;61036;53.224;6.554;2023-04-25T09:16:08;101263.75;;;16.01;78.73
72896;BME280;61036;53.224;6.554;2023-04-25T09:18:42;101273.53;;;16.52;81.74
72896;BME280;61036;53.224;6.554;2023-04-25T09:21:10;101262.94;;;16.78;81.78
72896;BME280;61036;53.224;6.554;2023-04-25T09:23:46;101267.75;;;15.36;87.02
72896;BME280;61036;53.224;6.554;2023-04-25T09:26:17;101265.81;;;15.47;82.74
72896;BME280;61036;53.224;6.554;2023-04-25T09:28:43;101290.31;;;14.20;88.80
72896;BME280;61036;53.224;6.554;2023-04-25T09:31:10;101296.22;;;13.01;100.00
72896;BME280;61036;53.224;6.554;2023-04-25T09:33:41;101301.34;;;12.82;100.00
72896;BME280;61036;53.224;6.554;2023-04-25T09:36:08;101300.72;;;12.90;100.00
72896;BME280;61036;53.224;6.554;2023-04-25T09:38:52;101304.81;;;12.95;100.00
72896;BME280;61036;53.224;6.554;2023-04-25T09:41:28;101300.09;;;14.44;98.26
72896;BME280;61036;53.224;6.554;2023-04-25T09:43:58;101292.50;;;15.63;84.95
72896;BME280;61036;53.224;6.554;2023-04-25T09:46:35;101297.44;;;17.17;77.23
72896;BME280;61036;53.224;6.554;2023-04-25T09:49:07;101304.84;;;15.67;80.35
72896;BME280;61036;53.224;6.554;2023-04-25T09:51:57;101309.66;;;14.70;82.53
72896;BME280;61036;53.224;6.554;2023-04-25T09:54:26;101320.69;;;14.46;86.47
72896;BME280;61036;53.224;6.554;2023-04-25T09:59:39;101324.31;;;15.72;85.83
72896;BME280;61036;53.224;6.554;2023-04-25T10:02:08;101325.78;;;16.27;76.47
72896;BME280;61036;53.224;6.554;2023-04-25T10:04:37;101326.59;;;15.67;81.11
72896;BME280;61036;53.224;6.554;2023-04-25T10:07:08;101340.47;;;16.55;81.10
72896;BME280;61036;53.224;6.554;2023-04-25T10:09:37;101325.38;;;16.41;82.05
72896;BME280;61036;53.224;6.554;2023-04-25T10:12:05;101344.25;;;16.13;81.59
72896;BME280;61036;53.224;6.554;2023-04-25T10:14:31;101355.16;;;14.78;88.26
72896;BME280;61036;53.224;6.554;2023-04-25T10:17:00;101356.44;;;14.62;94.45
72896;BME280;61036;53.224;6.554;2023-04-25T10:19:27;101349.13;;;15.37;94.76
72896;BME280;61036;53.224;6.554;2023-04-25T10:22:07;101358.94;;;14.54;98.82
72896;BME280;61036;53.224;6.554;2023-04-25T10:24:35;101350.38;;;13.48;100.00
72896;BME280;61036;53.224;6.554;2023-04-25T10:27:02;101354.44;;;13.07;100.00
72896;BME280;61036;53.224;6.554;2023-04-25T10:29:27;101350.50;;;13.80;96.84
72896;BME280;61036;53.224;6.554;2023-04-25T10:31:53;101353.16;;;14.25;90.24
72896;BME280;61036;53.224;6.554;2023-04-25T10:34:19;101345.50;;;14.85;89.13
72896;BME280;61036;53.224;6.554;2023-04-25T10:36:52;101344.16;;;15.94;88.69
72896;BME280;61036;53.224;6.554;2023-04-25T10:39:25;101354.00;;;16.16;82.89
72896;BME280;61036;53.224;6.554;2023-04-25T10:41:55;101354.13;;;15.74;86.54
72896;BME280;61036;53.224;6.554;2023-04-25T10:44:21;101375.66;;;13.93;92.15
72896;BME280;61036;53.224;6.554;2023-04-25T10:46:47;101400.16;;;12.40;98.07
72896;BME280;61036;53.224;6.554;2023-04-25T10:49:29;101397.91;;;12.57;100.00
72896;BME280;61036;53.224;6.554;2023-04-25T10:52:25;101398.94;;;12.07;100.00
72896;BME280;61036;53.224;6.554;2023-04-25T10:54:52;101389.59;;;12.11;100.00
72896;BME280;61036;53.224;6.554;2023-04-25T11:00:17;101386.00;;;13.77;100.00
72896;BME280;61036;53.224;6.554;2023-04-25T11:02:46;101376.50;;;13.71;99.18
72896;BME280;61036;53.224;6.554;2023-04-25T11:05:29;101367.75;;;14.68;100.00
72896;BME280;61036;53.224;6.554;2023-04-25T11:07:55;101360.50;;;14.02;98.24
72896;BME280;61036;53.224;6.554;2023-04-25T11:10:26;101361.84;;;14.95;93.79
72896;BME280;61036;53.224;6.554;2023-04-25T11:12:52;101371.34;;;15.00;88.10
72896;BME280;61036;53.224;6.554;2023-04-25T11:15:17;101372.75;;;14.62;86.19
72896;BME280;61036;53.224;6.554;2023-04-25T11:17:43;101380.50;;;14.99;82.42
72896;BME280;61036;53.224;6.554;2023-04-25T11:20:12;101379.59;;;14.23;87.22
72896;BME280;61036;53.224;6.554;2023-04-25T11:22:40;101378.09;;;15.06;82.71
72896;BME280;61036;53.224;6.554;2023-04-25T11:25:08;101381.38;;;14.45;72.52
72896;BME280;61036;53.224;6.554;2023-04-25T11:27:33;101378.63;;;14.68;76.51
72896;BME280;61036;53.224;6.554;2023-04-25T11:30:15;101390.38;;;14.89;78.56
72896;BME280;61036;53.224;6.554;2023-04-25T11:32:41;101383.84;;;14.48;81.43
72896;BME280;61036;53.224;6.554;2023-04-25T11:35:11;101388.50;;;14.69;80.95
72896;BME280;61036;53.224;6.554;2023-04-25T11:37:39;101379.97;;;15.26;77.08
72896;BME280;61036;53.224;6.554;2023-04-25T11:40:08;101400.94;;;15.36;75.55
72896;BME280;61036;53.224;6.554;2023-04-25T11:42:44;101403.16;;;15.09;79.41
72896;BME280;61036;53.224;6.554;2023-04-25T11:45:10;101391.50;;;14.54;82.01
72896;BME280;61036;53.224;6.554;2023-04-25T11:47:36;101399.25;;;15.23;83.29
72896;BME280;61036;53.224;6.554;2023-04-25T11:50:03;101396.75;;;15.31;79.19
72896;BME280;61036;53.224;6.554;2023-04-25T11:55:04;101400.44;;;15.30;71.43
72896;BME280;61036;53.224;6.554;2023-04-25T11:57:31;101406.41;;;14.37;71.31
72896;BME280;61036;53.224;6.554;2023-04-25T12:00:08;101412.59;;;14.94;76.45
72896;BME280;61036;53.224;6.554;2023-04-25T12:02:40;101411.31;;;14.77;77.34
72896;BME280;61036;53.224;6.554;2023-04-25T12:05:07;101415.78;;;14.67;76.19
72896;BME280;61036;53.224;6.554;2023-04-25T12:07:34;101415.09;;;14.86;75.85
72896;BME280;61036;53.224;6.554;2023-04-25T12:10:07;101414.56;;;15.24;74.81
72896;BME280;61036;53.224;6.554;2023-04-25T12:12:36;101418.13;;;15.25;75.84
72896;BME280;61036;53.224;6.554;2023-04-25T12:17:52;101424.09;;;15.19;74.75
72896;BME280;61036;53.224;6.554;2023-04-25T12:20:24;101410.41;;;15.62;73.42
72896;BME280;61036;53.224;6.554;2023-04-25T12:22:52;101424.56;;;14.92;75.62
72896;BME280;61036;53.224;6.554;2023-04-25T12:25:36;101420.44;;;16.13;70.66
72896;BME280;61036;53.224;6.554;2023-04-25T12:28:20;101417.50;;;15.74;65.18
72896;BME280;61036;53.224;6.554;2023-04-25T12:31:12;101434.41;;;15.04;74.38
72896;BME280;61036;53.224;6.554;2023-04-25T12:33:39;101430.38;;;14.10;78.32
72896;BME280;61036;53.224;6.554;2023-04-25T12:36:06;101431.72;;;14.15;77.10
72896;BME280;61036;53.224;6.554;2023-04-25T12:38:41;101431.94;;;15.54;73.59
72896;BME280;61036;53.224;6.554;2023-04-25T12:41:08;101429.16;;;15.23;75.54
72896;BME280;61036;53.224;6.554;2023-04-25T12:43:33;101425.28;;;14.61;77.48
72896;BME280;61036;53.224;6.554;2023-04-25T12:45:59;101436.44;;;15.23;76.28
72896;BME280;61036;53.224;6.554;2023-04-25T12:48:24;101438.81;;;14.84;77.88
72896;BME280;61036;53.224;6.554;2023-04-25T12:50:51;101435.31;;;15.88;73.31
72896;BME280;61036;53.224;6.554;2023-04-25T12:53:18;101427.81;;;15.71;74.46
72896;BME280;61036;53.224;6.554;2023-04-25T12:55:44;101439.66;;;14.96;68.91
72896;BME280;61036;53.224;6.554;2023-04-25T12:58:14;101447.38;;;14.01;78.04
72896;BME280;61036;53.224;6.554;2023-04-25T13:00:39;101442.91;;;14.78;77.15
72896;BME280;61036;53.224;6.554;2023-04-25T13:03:05;101440.72;;;15.78;74.79
72896;BME280;61036;53.224;6.554;2023-04-25T13:05:31;101444.25;;;14.84;80.34
72896;BME280;61036;53.224;6.554;2023-04-25T13:07:56;101455.50;;;14.46;76.87
72896;BME280;61036;53.224;6.554;2023-04-25T13:10:22;101447.38;;;14.46;71.84